Time;durP1;ratioP1;P1;durP2;ratioP2;P2;SDS_P1;SDS_P2;PMS_P1;PMS_P2;Temp;Humidity;BMP_temperature;BMP_pressure;BME280_temperature;BME280_humidity;BME280_pressure;Samples;Min_cycle;Max_cycle;Signal;HPM_P1;HPM_P2
2021/09/15 00:02:12;;;;;;;6.40;3.97;;;;;;;;;;6214240;28;20049;-66
2021/09/15 00:05:14;;;;;;;10.48;4.15;;;;;;;;;;6216827;28;20412;-67
2021/09/15 00:08:15;;;;;;;8.73;4.18;;;;;;;;;;6212499;28;20046;-66
2021/09/15 00:11:19;;;;;;;8.35;4.40;;;;;;;;;;6211564;28;20119;-66
2021/09/15 00:14:21;;;;;;;6.07;4.65;;;;;;;;;;6217851;28;20046;-66
2021/09/15 00:17:24;;;;;;;7.63;4.25;;;;;;;;;;6212366;28;20057;-66
2021/09/15 00:20:26;;;;;;;7.90;4.35;;;;;;;;;;6217624;28;20046;-66
2021/09/15 00:23:27;;;;;;;7.28;4.20;;;;;;;;;;6220568;28;20374;-66
2021/09/15 00:26:29;;;;;;;6.97;3.97;;;;;;;;;;6222558;28;20082;-66
2021/09/15 00:29:31;;;;;;;7.45;3.72;;;;;;;;;;6224746;28;20069;-66
2021/09/15 00:32:34;;;;;;;5.40;4.00;;;;;;;;;;6210935;28;20046;-66
2021/09/15 00:35:36;;;;;;;4.22;3.38;;;;;;;;;;6213002;28;20062;-67
2021/09/15 00:38:37;;;;;;;5.13;3.85;;;;;;;;;;6219227;28;20089;-67
2021/09/15 00:41:39;;;;;;;5.05;3.80;;;;;;;;;;6215875;28;20160;-66
2021/09/15 00:44:41;;;;;;;5.13;3.75;;;;;;;;;;6218038;28;20327;-67
2021/09/15 00:47:44;;;;;;;6.95;4.22;;;;;;;;;;6213407;28;20083;-66
2021/09/15 00:50:45;;;;;;;;;;;;;;;;;;6212112;28;20089;-66
2021/09/15 00:53:48;;;;;;;6.40;3.72;;;;;;;;;;6218730;28;19922;-66
2021/09/15 00:56:49;;;;;;;4.30;2.95;;;;;;;;;;6218888;28;20054;-66
2021/09/15 00:59:51;;;;;;;9.65;4.03;;;;;;;;;;6214962;28;20066;-66
2021/09/15 01:02:54;;;;;;;5.07;3.80;;;;;;;;;;6208399;28;20060;-66
2021/09/15 01:05:56;;;;;;;7.20;4.03;;;;;;;;;;6210669;28;20409;-66
2021/09/15 01:08:58;;;;;;;4.57;3.67;;;;;;;;;;6215455;28;20096;-66
2021/09/15 01:12:01;;;;;;;5.53;3.40;;;;;;;;;;6214963;28;20053;-66
2021/09/15 01:15:02;;;;;;;5.60;3.90;;;;;;;;;;6203349;28;20046;-66
2021/09/15 01:18:14;;;;;;;5.65;4.10;;;;;;;;;;6209301;28;20066;-66
2021/09/15 01:21:17;;;;;;;4.95;4.05;;;;;;;;;;6211339;28;20046;-66
2021/09/15 01:24:20;;;;;;;5.43;3.72;;;;;;;;;;6213643;28;20042;-66
2021/09/15 01:27:22;;;;;;;4.65;3.58;;;;;;;;;;6210431;28;20133;-66
2021/09/15 01:30:24;;;;;;;4.50;3.53;;;;;;;;;;6211807;28;20065;-67
2021/09/15 01:33:25;;;;;;;6.93;4.20;;;;;;;;;;6216232;28;20122;-66
2021/09/15 01:36:29;;;;;;;5.60;3.80;;;;;;;;;;6213419;28;20054;-66
2021/09/15 01:39:30;;;;;;;5.80;3.42;;;;;;;;;;6218323;28;20081;-66
2021/09/15 01:42:32;;;;;;;4.95;3.92;;;;;;;;;;6238786;28;20132;-66
2021/09/15 01:45:34;;;;;;;4.53;4.00;;;;;;;;;;6241343;28;20049;-66
2021/09/15 01:48:36;;;;;;;5.03;4.10;;;;;;;;;;6216239;28;20127;-66
2021/09/15 01:51:42;;;;;;;4.82;3.58;;;;;;;;;;6214604;28;20141;-66
2021/09/15 01:54:44;;;;;;;5.78;3.50;;;;;;;;;;6216116;28;20046;-66
2021/09/15 01:57:46;;;;;;;6.70;3.72;;;;;;;;;;6209860;28;20073;-66
2021/09/15 02:00:48;;;;;;;5.60;3.90;;;;;;;;;;6214092;28;20550;-66
2021/09/15 02:03:49;;;;;;;5.85;3.42;;;;;;;;;;6214397;28;20042;-66
2021/09/15 02:06:53;;;;;;;5.72;3.90;;;;;;;;;;6213851;28;20073;-66
2021/09/15 02:09:54;;;;;;;;;;;;;;;;;;6215112;28;20065;-66
2021/09/15 02:12:56;;;;;;;7.20;3.65;;;;;;;;;;6222658;28;19929;-66
2021/09/15 02:15:58;;;;;;;8.63;3.80;;;;;;;;;;6210366;28;20088;-66
2021/09/15 02:19:00;;;;;;;5.75;3.70;;;;;;;;;;6220899;28;20093;-66
2021/09/15 02:22:04;;;;;;;5.40;4.32;;;;;;;;;;6209614;28;20053;-66
2021/09/15 02:25:06;;;;;;;5.47;3.83;;;;;;;;;;6209734;28;20049;-66
2021/09/15 02:28:08;;;;;;;5.70;3.65;;;;;;;;;;6208608;28;20081;-66
2021/09/15 02:31:10;;;;;;;5.45;3.60;;;;;;;;;;6225858;28;20053;-66
2021/09/15 02:34:12;;;;;;;7.68;3.90;;;;;;;;;;6223663;28;20050;-66
2021/09/15 02:37:15;;;;;;;4.97;3.58;;;;;;;;;;6213518;28;20105;-66
2021/09/15 02:40:17;;;;;;;4.72;3.60;;;;;;;;;;6213618;28;20046;-67
2021/09/15 02:43:19;;;;;;;6.05;3.83;;;;;;;;;;6211531;28;20049;-66
2021/09/15 02:46:20;;;;;;;5.28;3.60;;;;;;;;;;6211273;28;20066;-66
2021/09/15 02:49:27;;;;;;;7.22;3.80;;;;;;;;;;6214065;28;20141;-66
2021/09/15 02:52:30;;;;;;;6.65;4.00;;;;;;;;;;6233504;28;20041;-66
2021/09/15 02:55:31;;;;;;;4.07;3.53;;;;;;;;;;6238134;28;20056;-66
2021/09/15 02:58:33;;;;;;;4.60;3.42;;;;;;;;;;6215934;28;20049;-66
2021/09/15 03:01:35;;;;;;;5.22;3.83;;;;;;;;;;6209462;28;20050;-66
2021/09/15 03:04:36;;;;;;;7.32;3.95;;;;;;;;;;6216749;28;20160;-66
2021/09/15 03:07:40;;;;;;;4.35;3.85;;;;;;;;;;6209028;28;20061;-66
2021/09/15 03:10:42;;;;;;;4.45;3.70;;;;;;;;;;6237650;28;20099;-67
2021/09/15 03:13:45;;;;;;;7.97;4.07;;;;;;;;;;6249015;28;20061;-66
2021/09/15 03:16:47;;;;;;;5.22;4.18;;;;;;;;;;6235815;28;20045;-66
2021/09/15 03:19:49;;;;;;;5.45;3.72;;;;;;;;;;6237355;28;20150;-66
2021/09/15 03:22:52;;;;;;;5.97;3.92;;;;;;;;;;6234586;28;20050;-66
2021/09/15 03:25:53;;;;;;;7.50;3.67;;;;;;;;;;6238271;28;20156;-66
2021/09/15 03:28:55;;;;;;;4.05;3.45;;;;;;;;;;6242744;28;20137;-66
2021/09/15 03:31:57;;;;;;;5.75;3.38;;;;;;;;;;6216601;28;20054;-66
2021/09/15 03:34:58;;;;;;;7.95;3.90;;;;;;;;;;6213212;28;20041;-66
2021/09/15 03:38:01;;;;;;;5.45;3.90;;;;;;;;;;6216619;28;20105;-66
2021/09/15 03:41:03;;;;;;;5.05;4.53;;;;;;;;;;6239187;28;20046;-66
2021/09/15 03:44:05;;;;;;;5.38;3.70;;;;;;;;;;6249417;28;20045;-66
2021/09/15 03:47:07;;;;;;;4.63;3.33;;;;;;;;;;6244780;28;20045;-67
2021/09/15 03:50:10;;;;;;;4.15;3.50;;;;;;;;;;6246041;28;20049;-66
2021/09/15 03:53:13;;;;;;;6.70;3.30;;;;;;;;;;6245145;28;20053;-66
2021/09/15 03:56:14;;;;;;;5.22;3.25;;;;;;;;;;6237753;28;20056;-66
2021/09/15 03:59:16;;;;;;;4.35;3.67;;;;;;;;;;6249554;28;20116;-66
2021/09/15 04:02:18;;;;;;;5.00;3.70;;;;;;;;;;6239740;28;20045;-67
2021/09/15 04:05:19;;;;;;;5.10;3.45;;;;;;;;;;6242289;28;20061;-66
2021/09/15 04:08:22;;;;;;;7.65;4.15;;;;;;;;;;6244249;28;20045;-66
2021/09/15 04:11:24;;;;;;;6.88;4.07;;;;;;;;;;6245393;28;20058;-66
2021/09/15 04:14:26;;;;;;;4.68;3.75;;;;;;;;;;6246071;28;20053;-66
2021/09/15 04:17:27;;;;;;;5.53;3.65;;;;;;;;;;6234524;28;20056;-66
2021/09/15 04:20:30;;;;;;;4.32;3.72;;;;;;;;;;6232795;28;20042;-68
2021/09/15 04:23:37;;;;;;;3.85;3.30;;;;;;;;;;6238621;28;20045;-66
2021/09/15 04:33:17;;;;;;;6.00;3.92;;;;;;;;;;6235756;28;20053;-66
2021/09/15 04:36:19;;;;;;;6.43;3.90;;;;;;;;;;6237946;28;20100;-66
2021/09/15 04:39:22;;;;;;;7.78;3.55;;;;;;;;;;6248731;28;20096;-68
2021/09/15 04:42:23;;;;;;;4.18;3.75;;;;;;;;;;6239492;28;20157;-68
2021/09/15 04:45:25;;;;;;;9.27;3.83;;;;;;;;;;6243328;28;20097;-68
2021/09/15 04:48:27;;;;;;;6.65;4.03;;;;;;;;;;6240882;28;20073;-66
2021/09/15 04:51:28;;;;;;;4.95;3.67;;;;;;;;;;6240265;28;20089;-67
2021/09/15 04:54:31;;;;;;;7.55;4.15;;;;;;;;;;6242540;28;20077;-66
2021/09/15 04:57:33;;;;;;;7.63;4.15;;;;;;;;;;6240471;28;20096;-66
2021/09/15 05:00:35;;;;;;;9.15;4.25;;;;;;;;;;6239045;28;20133;-67
2021/09/15 05:03:36;;;;;;;7.63;4.25;;;;;;;;;;6241355;28;20052;-66
2021/09/15 05:06:38;;;;;;;7.57;4.40;;;;;;;;;;6228554;28;20203;-66
2021/09/15 05:09:41;;;;;;;7.30;4.13;;;;;;;;;;6246570;28;20042;-67
2021/09/15 05:12:43;;;;;;;7.20;4.38;;;;;;;;;;6242101;28;20048;-66
2021/09/15 05:15:45;;;;;;;13.27;5.00;;;;;;;;;;6241496;28;20041;-67
2021/09/15 05:18:46;;;;;;;15.35;4.93;;;;;;;;;;6239953;28;20042;-67
2021/09/15 05:21:48;;;;;;;11.30;4.93;;;;;;;;;;6247433;28;20099;-66
2021/09/15 05:24:51;;;;;;;11.43;5.80;;;;;;;;;;6250921;28;20718;-66
2021/09/15 05:27:54;;;;;;;;;;;;;;;;;;6246839;28;20045;-66
2021/09/15 05:30:55;;;;;;;10.70;5.75;;;;;;;;;;6238300;28;19928;-67
2021/09/15 05:33:57;;;;;;;6.80;5.03;;;;;;;;;;6244915;28;20059;-66
2021/09/15 05:36:59;;;;;;;9.32;5.80;;;;;;;;;;6241164;28;20513;-67
2021/09/15 05:40:03;;;;;;;9.10;5.88;;;;;;;;;;6241813;28;20108;-66
2021/09/15 05:43:05;;;;;;;14.60;6.32;;;;;;;;;;6242265;28;20081;-66
2021/09/15 05:46:06;;;;;;;9.68;6.68;;;;;;;;;;6240995;28;20128;-66
2021/09/15 05:49:08;;;;;;;9.57;6.50;;;;;;;;;;6238089;28;20114;-66
2021/09/15 05:52:10;;;;;;;17.27;8.07;;;;;;;;;;6239311;28;20073;-66
2021/09/15 05:55:13;;;;;;;10.32;8.52;;;;;;;;;;6241243;28;21230;-67
2021/09/15 05:58:17;;;;;;;16.15;9.15;;;;;;;;;;6238930;28;20049;-66
2021/09/15 06:01:18;;;;;;;25.10;10.50;;;;;;;;;;6229976;28;20081;-66
2021/09/15 06:04:20;;;;;;;15.82;9.57;;;;;;;;;;6237527;28;20078;-66
2021/09/15 06:07:21;;;;;;;10.48;9.32;;;;;;;;;;6235195;28;20148;-66
2021/09/15 06:10:24;;;;;;;17.23;9.45;;;;;;;;;;6234656;28;20073;-66
2021/09/15 06:13:26;;;;;;;15.65;9.70;;;;;;;;;;6243548;28;20199;-66
2021/09/15 06:16:28;;;;;;;15.20;9.35;;;;;;;;;;6230351;28;20065;-66
2021/09/15 06:19:29;;;;;;;12.93;9.20;;;;;;;;;;6244723;28;20096;-65
2021/09/15 06:22:31;;;;;;;11.30;8.60;;;;;;;;;;6233351;28;20060;-66
2021/09/15 06:25:36;;;;;;;20.23;10.93;;;;;;;;;;6237259;28;20232;-66
2021/09/15 06:28:37;;;;;;;14.88;10.13;;;;;;;;;;6243030;28;20147;-66
2021/09/15 06:31:41;;;;;;;23.80;10.70;;;;;;;;;;6229212;28;20160;-66
2021/09/15 06:34:42;;;;;;;17.83;9.93;;;;;;;;;;6236564;28;20045;-66
2021/09/15 06:37:44;;;;;;;17.05;9.50;;;;;;;;;;6231442;28;20057;-66
2021/09/15 06:40:48;;;;;;;13.95;9.07;;;;;;;;;;6233806;28;20068;-65
2021/09/15 06:43:50;;;;;;;15.52;9.57;;;;;;;;;;6245254;28;20045;-66
2021/09/15 06:46:52;;;;;;;13.43;10.00;;;;;;;;;;6234111;28;20107;-66
2021/09/15 06:49:53;;;;;;;14.68;9.52;;;;;;;;;;6249209;28;20072;-66
2021/09/15 06:52:55;;;;;;;15.45;11.77;;;;;;;;;;6250069;28;20049;-66
2021/09/15 06:55:58;;;;;;;14.10;9.50;;;;;;;;;;6250107;28;20050;-66
2021/09/15 06:59:00;;;;;;;16.13;9.95;;;;;;;;;;6250620;28;20068;-66
2021/09/15 07:02:01;;;;;;;18.20;10.90;;;;;;;;;;6241227;28;20056;-66
2021/09/15 07:05:04;;;;;;;13.85;10.93;;;;;;;;;;6239883;28;20052;-66
2021/09/15 07:08:06;;;;;;;14.82;10.05;;;;;;;;;;6247155;28;20054;-66
2021/09/15 07:11:09;;;;;;;11.83;8.20;;;;;;;;;;6245529;28;20072;-67
2021/09/15 07:14:11;;;;;;;11.93;8.73;;;;;;;;;;6242573;28;20448;-67
2021/09/15 07:17:13;;;;;;;11.65;8.20;;;;;;;;;;6248431;28;20105;-65
2021/09/15 07:20:15;;;;;;;12.40;9.07;;;;;;;;;;6243666;28;20113;-67
2021/09/15 07:23:17;;;;;;;13.45;8.70;;;;;;;;;;6237620;28;20056;-66
2021/09/15 07:26:20;;;;;;;15.70;9.50;;;;;;;;;;6237862;28;20053;-66
2021/09/15 07:29:22;;;;;;;13.00;9.07;;;;;;;;;;6246808;28;20057;-66
2021/09/15 07:32:24;;;;;;;13.70;9.35;;;;;;;;;;6227561;28;20077;-67
2021/09/15 07:35:26;;;;;;;14.95;10.07;;;;;;;;;;6243406;28;20505;-68
2021/09/15 07:38:28;;;;;;;12.38;9.02;;;;;;;;;;6237225;28;20100;-66
2021/09/15 07:41:31;;;;;;;12.93;8.73;;;;;;;;;;6234661;28;20045;-65
2021/09/15 07:44:33;;;;;;;10.82;7.07;;;;;;;;;;6233965;28;20077;-73
2021/09/15 07:47:34;;;;;;;15.18;8.18;;;;;;;;;;6220442;28;20057;-68
2021/09/15 07:50:36;;;;;;;15.43;7.55;;;;;;;;;;6241760;28;20138;-67
2021/09/15 07:53:38;;;;;;;13.00;8.20;;;;;;;;;;6245890;28;20096;-68
2021/09/15 07:56:41;;;;;;;11.23;8.15;;;;;;;;;;6226476;28;20087;-69
2021/09/15 07:59:43;;;;;;;;;;;;;;;;;;6248391;28;20042;-69
2021/09/15 08:02:45;;;;;;;7.45;4.22;;;;;;;;;;6237890;28;19928;-68
2021/09/15 08:05:47;;;;;;;7.03;3.25;;;;;;;;;;6247280;28;20054;-69
2021/09/15 08:08:48;;;;;;;6.40;3.20;;;;;;;;;;6235432;28;20045;-69
2021/09/15 08:11:51;;;;;;;7.93;3.13;;;;;;;;;;6244440;28;20507;-65
2021/09/15 08:14:53;;;;;;;6.38;2.88;;;;;;;;;;6230928;28;20038;-65
2021/09/15 08:17:55;;;;;;;5.63;3.20;;;;;;;;;;6230696;28;20127;-64
2021/09/15 08:20:56;;;;;;;5.65;3.15;;;;;;;;;;6231303;28;20068;-65
2021/09/15 08:23:59;;;;;;;4.55;2.80;;;;;;;;;;6234863;28;20050;-65
2021/09/15 08:27:02;;;;;;;5.38;2.70;;;;;;;;;;6227241;28;20123;-65
2021/09/15 08:30:05;;;;;;;7.22;3.70;;;;;;;;;;6242821;28;20069;-65
2021/09/15 08:33:07;;;;;;;5.03;3.05;;;;;;;;;;6234276;28;20046;-66
2021/09/15 08:36:08;;;;;;;7.70;3.65;;;;;;;;;;6224160;28;20595;-66
2021/09/15 08:39:10;;;;;;;6.45;3.20;;;;;;;;;;6243064;28;20042;-66
2021/09/15 08:42:13;;;;;;;8.02;3.10;;;;;;;;;;6232210;28;20129;-65
2021/09/15 08:45:15;;;;;;;3.38;2.58;;;;;;;;;;6243385;28;20038;-68
2021/09/15 08:48:19;;;;;;;4.03;2.60;;;;;;;;;;6240772;28;20053;-67
2021/09/15 08:51:23;;;;;;;8.15;2.40;;;;;;;;;;6239740;28;20041;-65
2021/09/15 08:54:25;;;;;;;6.28;2.95;;;;;;;;;;6235523;28;20050;-66
2021/09/15 08:57:28;;;;;;;8.85;2.67;;;;;;;;;;6232150;28;20175;-67
2021/09/15 09:00:30;;;;;;;4.80;2.70;;;;;;;;;;6239308;28;20915;-69
2021/09/15 09:03:35;;;;;;;6.30;2.33;;;;;;;;;;6238305;28;20714;-66
2021/09/15 09:06:36;;;;;;;4.97;2.88;;;;;;;;;;6240929;28;20052;-66
2021/09/15 09:09:45;;;;;;;3.63;2.40;;;;;;;;;;6243695;28;20073;-66
2021/09/15 09:12:48;;;;;;;4.82;2.50;;;;;;;;;;6238878;28;20128;-66
2021/09/15 09:15:52;;;;;;;4.53;2.60;;;;;;;;;;6242338;28;20129;-66
2021/09/15 09:18:57;;;;;;;6.70;2.72;;;;;;;;;;6234192;28;20049;-67
2021/09/15 09:22:00;;;;;;;4.55;2.80;;;;;;;;;;6231486;28;20088;-66
2021/09/15 09:25:02;;;;;;;4.15;3.03;;;;;;;;;;6249021;28;20048;-66
2021/09/15 09:28:21;;;;;;;8.93;2.70;;;;;;;;;;6236730;28;20436;-65
2021/09/15 09:31:23;;;;;;;4.40;2.78;;;;;;;;;;6238203;28;20099;-66
2021/09/15 09:34:25;;;;;;;4.25;2.65;;;;;;;;;;6239953;28;20405;-65
2021/09/15 09:37:26;;;;;;;5.00;3.10;;;;;;;;;;6234367;28;20482;-67
2021/09/15 09:40:28;;;;;;;3.83;2.60;;;;;;;;;;6233505;28;20042;-65
2021/09/15 09:43:33;;;;;;;6.60;3.15;;;;;;;;;;6237949;28;20052;-65
2021/09/15 09:46:41;;;;;;;5.00;3.10;;;;;;;;;;6223921;28;20122;-66
2021/09/15 09:49:58;;;;;;;5.43;2.92;;;;;;;;;;6229560;28;20096;-66
2021/09/15 09:53:00;;;;;;;6.00;3.30;;;;;;;;;;6223877;28;20126;-66
2021/09/15 09:56:02;;;;;;;6.45;2.83;;;;;;;;;;6223616;28;20060;-66
2021/09/15 09:59:06;;;;;;;6.50;2.90;;;;;;;;;;6230488;28;20144;-66
2021/09/15 10:02:07;;;;;;;5.03;3.60;;;;;;;;;;6223852;28;21743;-66
2021/09/15 10:05:10;;;;;;;4.35;2.67;;;;;;;;;;6237018;28;20057;-67
2021/09/15 10:08:12;;;;;;;2.97;2.67;;;;;;;;;;6235032;28;20056;-66
2021/09/15 10:11:15;;;;;;;5.63;2.88;;;;;;;;;;6238732;28;20696;-66
2021/09/15 10:14:19;;;;;;;4.90;2.65;;;;;;;;;;6243877;28;20094;-65
2021/09/15 10:17:23;;;;;;;4.55;2.80;;;;;;;;;;6227613;28;20171;-66
2021/09/15 10:20:27;;;;;;;7.78;3.05;;;;;;;;;;6230296;28;20045;-68
2021/09/15 10:23:39;;;;;;;4.18;2.85;;;;;;;;;;6234860;28;20052;-66
2021/09/15 10:26:42;;;;;;;5.35;3.10;;;;;;;;;;6236231;28;20073;-66
2021/09/15 10:29:47;;;;;;;6.85;3.13;;;;;;;;;;6246726;28;20115;-66
2021/09/15 10:32:50;;;;;;;7.82;3.10;;;;;;;;;;6227502;28;20076;-66
2021/09/15 10:35:52;;;;;;;4.68;2.65;;;;;;;;;;6226713;28;20057;-66
2021/09/15 10:38:55;;;;;;;9.38;4.35;;;;;;;;;;6239060;28;20065;-66
2021/09/15 10:41:57;;;;;;;5.93;3.60;;;;;;;;;;6235942;28;20046;-66
2021/09/15 10:45:15;;;;;;;5.88;3.25;;;;;;;;;;6240579;28;20049;-66
2021/09/15 10:48:17;;;;;;;8.35;3.10;;;;;;;;;;6237084;28;20401;-66
2021/09/15 10:51:20;;;;;;;6.63;3.00;;;;;;;;;;6242627;28;20049;-66
2021/09/15 10:54:41;;;;;;;8.30;3.20;;;;;;;;;;6230702;28;20075;-65
2021/09/15 10:57:44;;;;;;;6.97;3.65;;;;;;;;;;6232773;28;20141;-67
2021/09/15 11:00:50;;;;;;;;;;;;;;;;;;6230115;28;20445;-68
2021/09/15 11:03:53;;;;;;;9.85;3.10;;;;;;;;;;6231605;28;19945;-66
2021/09/15 11:06:55;;;;;;;5.15;3.40;;;;;;;;;;6231664;28;20111;-66
2021/09/15 11:09:58;;;;;;;7.47;3.20;;;;;;;;;;6234790;28;20073;-71
2021/09/15 11:13:01;;;;;;;17.95;10.65;;;;;;;;;;6231178;28;20069;-70
2021/09/15 11:16:24;;;;;;;10.55;6.72;;;;;;;;;;6229893;28;20545;-72
2021/09/15 11:19:30;;;;;;;58.70;34.20;;;;;;;;;;6234502;28;20123;-68
2021/09/15 11:22:32;;;;;;;58.35;33.90;;;;;;;;;;6238141;28;20045;-69
2021/09/15 11:25:34;;;;;;;;;;;;;;;;;;6239867;28;20187;-72
2021/09/15 11:28:36;;;;;;;4.00;2.65;;;;;;;;;;6248276;28;19921;-67
2021/09/15 11:31:40;;;;;;;3.72;2.60;;;;;;;;;;6222132;28;20100;-66
2021/09/15 11:34:43;;;;;;;4.55;2.83;;;;;;;;;;6225495;28;20077;-67
2021/09/15 11:37:47;;;;;;;2.60;2.40;;;;;;;;;;6228988;28;20094;-66
2021/09/15 11:40:48;;;;;;;4.82;2.50;;;;;;;;;;6225828;28;20045;-66
2021/09/15 11:43:50;;;;;;;4.35;3.03;;;;;;;;;;6238854;28;20069;-68
2021/09/15 11:46:53;;;;;;;7.45;3.47;;;;;;;;;;6225910;28;20038;-67
2021/09/15 11:49:54;;;;;;;6.55;2.90;;;;;;;;;;6247215;28;20392;-67
2021/09/15 11:53:01;;;;;;;5.80;3.28;;;;;;;;;;6230223;28;20072;-67
2021/09/15 11:56:03;;;;;;;9.10;2.90;;;;;;;;;;6238336;28;20067;-67
2021/09/15 11:59:05;;;;;;;5.18;2.90;;;;;;;;;;6251249;28;20053;-67
2021/09/15 12:02:11;;;;;;;4.53;3.33;;;;;;;;;;6224309;28;20098;-67
2021/09/15 12:05:13;;;;;;;7.60;3.55;;;;;;;;;;6236302;28;20167;-68
2021/09/15 12:08:14;;;;;;;6.45;3.80;;;;;;;;;;6238166;28;20084;-67
2021/09/15 12:11:16;;;;;;;7.35;3.40;;;;;;;;;;6241287;28;20136;-67
2021/09/15 12:14:18;;;;;;;3.92;3.20;;;;;;;;;;6241471;28;20129;-67
2021/09/15 12:17:21;;;;;;;7.25;4.20;;;;;;;;;;6225921;28;20053;-67
2021/09/15 12:20:37;;;;;;;;;;;;;;;;;;6240741;28;20049;-67
2021/09/15 12:23:39;;;;;;;6.72;3.17;;;;;;;;;;6252735;28;20010;-67
2021/09/15 12:26:41;;;;;;;9.02;4.28;;;;;;;;;;6238938;28;20090;-66
2021/09/15 12:29:42;;;;;;;5.63;3.75;;;;;;;;;;6245284;28;20077;-66
2021/09/15 12:32:45;;;;;;;6.15;3.83;;;;;;;;;;6228751;28;20046;-66
2021/09/15 12:35:47;;;;;;;;;;;;;;;;;;6239096;28;20145;-66
2021/09/15 12:38:51;;;;;;;7.20;3.75;;;;;;;;;;6243431;28;19975;-66
2021/09/15 12:41:56;;;;;;;6.10;3.78;;;;;;;;;;6224258;28;20053;-66
2021/09/15 12:45:02;;;;;;;3.75;3.33;;;;;;;;;;6237119;28;20099;-66
2021/09/15 12:48:15;;;;;;;3.42;2.97;;;;;;;;;;6232039;28;20068;-67
2021/09/15 12:51:17;;;;;;;7.10;3.08;;;;;;;;;;6236508;28;20057;-67
2021/09/15 12:54:19;;;;;;;6.15;3.15;;;;;;;;;;6254255;28;20050;-67
2021/09/15 12:57:25;;;;;;;7.40;4.15;;;;;;;;;;6261370;28;20797;-67
2021/09/15 13:00:31;;;;;;;7.03;3.28;;;;;;;;;;6255798;28;20472;-69
2021/09/15 13:03:38;;;;;;;3.95;3.00;;;;;;;;;;6251473;28;20054;-67
2021/09/15 13:06:40;;;;;;;6.90;3.90;;;;;;;;;;6239168;28;20072;-67
2021/09/15 13:09:41;;;;;;;3.80;2.90;;;;;;;;;;6254171;28;20049;-67
2021/09/15 13:12:43;;;;;;;5.47;3.07;;;;;;;;;;6250579;28;20053;-67
2021/09/15 13:15:45;;;;;;;4.63;3.10;;;;;;;;;;6246031;28;20076;-69
2021/09/15 13:18:48;;;;;;;;;;;;;;;;;;6255606;28;21019;-67
2021/09/15 13:21:50;;;;;;;11.43;2.97;;;;;;;;;;6234898;28;19936;-67
2021/09/15 13:24:52;;;;;;;8.80;3.37;;;;;;;;;;6247454;28;20049;-67
2021/09/15 13:27:53;;;;;;;5.15;3.60;;;;;;;;;;6244767;28;20045;-67
2021/09/15 13:30:56;;;;;;;13.20;3.58;;;;;;;;;;6246195;28;20762;-68
2021/09/15 13:33:59;;;;;;;5.95;3.53;;;;;;;;;;6248929;28;20525;-68
2021/09/15 13:37:00;;;;;;;4.47;3.35;;;;;;;;;;6235439;28;20073;-68
2021/09/15 13:40:03;;;;;;;7.83;3.40;;;;;;;;;;6239673;28;20060;-68
2021/09/15 13:43:05;;;;;;;7.75;3.65;;;;;;;;;;6248667;28;20049;-68
2021/09/15 13:46:06;;;;;;;6.70;3.77;;;;;;;;;;6239219;28;20042;-66
2021/09/15 13:49:09;;;;;;;9.55;3.60;;;;;;;;;;6241955;28;20464;-66
2021/09/15 13:52:13;;;;;;;8.95;3.80;;;;;;;;;;6228657;28;20433;-66
2021/09/15 13:55:16;;;;;;;8.05;3.65;;;;;;;;;;6235451;28;20045;-66
2021/09/15 13:58:17;;;;;;;6.47;3.35;;;;;;;;;;6242614;28;20549;-67
2021/09/15 14:01:19;;;;;;;6.55;3.63;;;;;;;;;;6242688;28;20468;-65
2021/09/15 14:04:22;;;;;;;5.45;3.47;;;;;;;;;;6244538;28;20127;-65
2021/09/15 14:07:23;;;;;;;9.18;3.80;;;;;;;;;;6233443;28;20064;-65
2021/09/15 14:10:25;;;;;;;9.02;3.58;;;;;;;;;;6228791;28;20142;-66
2021/09/15 14:13:27;;;;;;;9.40;3.95;;;;;;;;;;6240004;28;20054;-65
2021/09/15 14:16:29;;;;;;;8.02;3.47;;;;;;;;;;6227001;28;20161;-65
2021/09/15 14:19:32;;;;;;;7.18;3.30;;;;;;;;;;6238607;28;20080;-65
2021/09/15 14:22:33;;;;;;;;;;;;;;;;;;6234285;28;20084;-65
2021/09/15 14:25:35;;;;;;;6.60;3.13;;;;;;;;;;6236044;28;20023;-65
2021/09/15 14:28:37;;;;;;;8.48;3.70;;;;;;;;;;6232276;28;20050;-65
2021/09/15 14:31:38;;;;;;;8.57;3.58;;;;;;;;;;6245612;28;20068;-65
2021/09/15 14:34:41;;;;;;;9.98;3.33;;;;;;;;;;6238661;28;20051;-66
2021/09/15 14:37:43;;;;;;;;;;;;;;;;;;6238230;28;20092;-65
2021/09/15 14:40:44;;;;;;;14.70;3.75;;;;;;;;;;6235924;28;20331;-65
2021/09/15 14:43:47;;;;;;;9.60;3.58;;;;;;;;;;6241247;28;20073;-66
2021/09/15 14:46:48;;;;;;;8.87;3.10;;;;;;;;;;6225210;28;20125;-65
2021/09/15 14:49:51;;;;;;;8.55;3.22;;;;;;;;;;6248798;28;20048;-65
2021/09/15 14:52:53;;;;;;;6.05;3.42;;;;;;;;;;6236240;28;20069;-65
2021/09/15 14:55:54;;;;;;;6.80;4.13;;;;;;;;;;6233223;28;20065;-65
2021/09/15 14:58:56;;;;;;;9.25;3.08;;;;;;;;;;6251402;28;20095;-65
2021/09/15 15:01:58;;;;;;;10.15;3.40;;;;;;;;;;6235067;28;20508;-66
2021/09/15 15:05:00;;;;;;;7.70;3.30;;;;;;;;;;6226075;28;20057;-66
2021/09/15 15:08:02;;;;;;;5.68;3.00;;;;;;;;;;6225915;28;20183;-66
2021/09/15 15:11:04;;;;;;;5.35;3.05;;;;;;;;;;6232579;28;20125;-65
2021/09/15 15:14:06;;;;;;;4.03;3.13;;;;;;;;;;6235624;28;20038;-66
2021/09/15 15:17:08;;;;;;;6.40;3.35;;;;;;;;;;6233089;28;20068;-66
2021/09/15 15:20:13;;;;;;;5.72;3.25;;;;;;;;;;6234744;28;20186;-66
2021/09/15 15:23:15;;;;;;;15.57;3.70;;;;;;;;;;6246299;28;20123;-66
2021/09/15 15:26:17;;;;;;;12.75;4.18;;;;;;;;;;6227119;28;20096;-65
2021/09/15 15:29:18;;;;;;;14.68;4.10;;;;;;;;;;6246931;28;20057;-66
2021/09/15 15:32:20;;;;;;;11.00;3.63;;;;;;;;;;6236647;28;20049;-66
2021/09/15 15:35:24;;;;;;;13.23;4.65;;;;;;;;;;6250667;28;20061;-67
2021/09/15 15:38:25;;;;;;;10.10;4.13;;;;;;;;;;6227277;28;20069;-66
2021/09/15 15:41:27;;;;;;;9.75;4.15;;;;;;;;;;6233951;28;20631;-66
2021/09/15 15:44:28;;;;;;;19.95;4.22;;;;;;;;;;6240702;28;20054;-66
2021/09/15 15:47:30;;;;;;;11.45;3.55;;;;;;;;;;6230462;28;20050;-65
2021/09/15 15:50:33;;;;;;;7.47;3.92;;;;;;;;;;6232611;28;20054;-66
2021/09/15 15:53:35;;;;;;;;;;;;;;;;;;6232621;28;20105;-66
2021/09/15 15:56:36;;;;;;;10.43;3.95;;;;;;;;;;6223100;28;20172;-65
2021/09/15 15:59:38;;;;;;;7.03;3.88;;;;;;;;;;6223489;28;20050;-66
2021/09/15 16:02:39;;;;;;;9.48;3.30;;;;;;;;;;6230759;28;20051;-66
2021/09/15 16:05:43;;;;;;;8.00;3.50;;;;;;;;;;6219532;28;20177;-65
2021/09/15 16:08:46;;;;;;;17.58;4.50;;;;;;;;;;6233601;28;20121;-66
2021/09/15 16:11:49;;;;;;;17.20;3.58;;;;;;;;;;6237395;28;20063;-66
2021/09/15 16:14:51;;;;;;;;;;;;;;;;;;6240162;28;20477;-66
2021/09/15 16:17:53;;;;;;;57.13;31.60;;;;;;;;;;6224006;28;19921;-68
2021/09/15 16:20:56;;;;;;;29.38;18.08;;;;;;;;;;6229265;28;20050;-66
2021/09/15 16:23:58;;;;;;;24.00;9.57;;;;;;;;;;6230456;28;20133;-66
2021/09/15 16:27:00;;;;;;;23.40;5.43;;;;;;;;;;6235275;28;20099;-65
2021/09/15 16:30:01;;;;;;;26.52;6.25;;;;;;;;;;6241567;28;20073;-65
2021/09/15 16:33:03;;;;;;;27.95;6.10;;;;;;;;;;6238948;28;20037;-66
2021/09/15 16:36:06;;;;;;;13.35;5.28;;;;;;;;;;6235390;28;20054;-66
2021/09/15 16:39:08;;;;;;;;;;;;;;;;;;6252160;28;20087;-66
2021/09/15 16:42:10;;;;;;;27.38;6.80;;;;;;;;;;6242901;28;19922;-66
2021/09/15 16:45:12;;;;;;;25.85;5.35;;;;;;;;;;6243431;28;20073;-66
2021/09/15 16:48:21;;;;;;;19.43;6.13;;;;;;;;;;6232634;28;20511;-66
2021/09/15 16:51:24;;;;;;;27.85;5.90;;;;;;;;;;6240118;28;20046;-66
2021/09/15 16:54:28;;;;;;;;;;;;;;;;;;6243577;28;20127;-66
2021/09/15 16:57:31;;;;;;;26.52;5.50;;;;;;;;;;6239102;28;20489;-66
2021/09/15 17:00:33;;;;;;;29.52;6.55;;;;;;;;;;6232822;28;20061;-66
2021/09/15 17:03:35;;;;;;;24.47;6.37;;;;;;;;;;6242780;28;20058;-65
2021/09/15 17:06:39;;;;;;;28.55;6.60;;;;;;;;;;6243147;28;20061;-66
2021/09/15 17:09:40;;;;;;;18.13;5.82;;;;;;;;;;6244974;28;20053;-66
2021/09/15 17:12:43;;;;;;;16.45;6.07;;;;;;;;;;6244056;28;20455;-66
2021/09/15 17:15:45;;;;;;;26.70;7.82;;;;;;;;;;6234684;28;20147;-66
2021/09/15 17:18:46;;;;;;;18.38;5.85;;;;;;;;;;6242321;28;20064;-65
2021/09/15 17:21:49;;;;;;;15.70;6.68;;;;;;;;;;6239121;28;20108;-65
2021/09/15 17:24:51;;;;;;;18.67;6.47;;;;;;;;;;6249694;28;20056;-65
2021/09/15 17:27:53;;;;;;;14.35;6.30;;;;;;;;;;6238147;28;20545;-65
2021/09/15 17:30:55;;;;;;;18.37;6.40;;;;;;;;;;6242266;28;20061;-66
2021/09/15 17:33:57;;;;;;;22.00;6.03;;;;;;;;;;6238018;28;20175;-68
2021/09/15 17:37:00;;;;;;;20.75;5.90;;;;;;;;;;6238317;28;20400;-67
2021/09/15 17:40:01;;;;;;;16.45;6.18;;;;;;;;;;6242525;28;20100;-67
2021/09/15 17:43:06;;;;;;;16.95;6.30;;;;;;;;;;6233959;28;20046;-67
2021/09/15 17:46:07;;;;;;;19.67;7.07;;;;;;;;;;6236203;28;20058;-67
2021/09/15 17:49:12;;;;;;;20.80;6.75;;;;;;;;;;6245157;28;20050;-67
2021/09/15 17:52:15;;;;;;;14.32;6.50;;;;;;;;;;6237281;28;20065;-68
2021/09/15 17:55:16;;;;;;;15.25;6.78;;;;;;;;;;6239503;28;20135;-69
2021/09/15 17:58:18;;;;;;;15.45;6.15;;;;;;;;;;6243137;28;20053;-67
2021/09/15 18:01:20;;;;;;;11.45;6.57;;;;;;;;;;6236455;28;20077;-68
2021/09/15 18:04:22;;;;;;;16.48;6.22;;;;;;;;;;6238847;28;20055;-67
2021/09/15 18:07:25;;;;;;;16.63;7.00;;;;;;;;;;6237303;28;20049;-69
2021/09/15 18:10:26;;;;;;;14.77;6.47;;;;;;;;;;6240305;28;20046;-68
2021/09/15 18:13:28;;;;;;;16.27;6.88;;;;;;;;;;6253799;28;20049;-67
2021/09/15 18:16:30;;;;;;;15.65;7.03;;;;;;;;;;6237106;28;20061;-67
2021/09/15 18:19:32;;;;;;;15.30;6.70;;;;;;;;;;6243736;28;20128;-69
2021/09/15 18:22:35;;;;;;;13.48;7.70;;;;;;;;;;6234770;28;20109;-68